createdAt,value
2023-04-15T00:00:00.257Z,7.15
2023-04-15T00:02:30.854Z,7.16
2023-04-15T00:05:04.159Z,7.20
2023-04-15T00:07:48.143Z,7.24
2023-04-15T00:10:32.991Z,7.29
2023-04-15T00:13:04.953Z,7.36
2023-04-15T00:15:33.011Z,7.42
2023-04-15T00:18:33.897Z,7.47
2023-04-15T00:21:12.153Z,7.52
2023-04-15T00:23:42.864Z,7.54
2023-04-15T00:26:13.937Z,7.56
2023-04-15T00:28:44.930Z,7.60
2023-04-15T00:31:17.878Z,7.62
2023-04-15T00:33:47.523Z,7.65
2023-04-15T00:36:19.912Z,7.67
2023-04-15T00:38:54.216Z,7.67
2023-04-15T00:41:30.860Z,7.68
2023-04-15T00:44:05.139Z,7.69
2023-04-15T00:46:37.877Z,7.70
2023-04-15T00:49:15.009Z,7.70
2023-04-15T00:51:48.300Z,7.70
2023-04-15T00:54:20.416Z,7.71
2023-04-15T00:56:53.713Z,7.72
2023-04-15T00:59:24.890Z,7.72
2023-04-15T01:01:53.703Z,7.72
2023-04-15T01:04:26.315Z,7.70
2023-04-15T01:06:54.473Z,7.64
2023-04-15T01:09:22.541Z,7.56
2023-04-15T01:11:55.226Z,7.49
2023-04-15T01:14:24.057Z,7.42
2023-04-15T01:16:57.291Z,7.33
2023-04-15T01:19:26.911Z,7.24
2023-04-15T01:21:58.486Z,7.15
2023-04-15T01:24:28.930Z,7.10
2023-04-15T01:26:58.604Z,7.05
2023-04-15T01:29:29.342Z,7.00
2023-04-15T01:31:59.129Z,6.98
2023-04-15T01:34:32.145Z,6.96
2023-04-15T01:37:04.006Z,6.95
2023-04-15T01:39:32.268Z,6.95
2023-04-15T01:42:06.629Z,6.95
2023-04-15T01:44:37.438Z,6.97
2023-04-15T01:47:05.802Z,7.00
2023-04-15T01:49:43.083Z,7.02
2023-04-15T01:52:14.463Z,7.03
2023-04-15T01:54:46.639Z,7.05
2023-04-15T01:57:14.790Z,7.05
2023-04-15T01:59:42.912Z,7.04
2023-04-15T02:02:30.281Z,7.05
2023-04-15T02:04:59.545Z,7.06
2023-04-15T02:07:33.952Z,7.07
2023-04-15T02:10:04.937Z,7.07
2023-04-15T02:12:35.759Z,7.07
2023-04-15T02:15:05.584Z,7.06
2023-04-15T02:17:38.088Z,7.04
2023-04-15T02:20:21.435Z,6.95
2023-04-15T02:22:52.227Z,6.88
2023-04-15T02:25:20.701Z,6.80
2023-04-15T02:27:53.501Z,6.72
2023-04-15T02:30:24.137Z,6.64
2023-04-15T02:32:54.180Z,6.56
2023-04-15T02:35:29.006Z,6.49
2023-04-15T02:38:08.356Z,6.41
2023-04-15T02:40:42.420Z,6.31
2023-04-15T02:43:10.811Z,6.25
2023-04-15T02:45:43.635Z,6.19
2023-04-15T02:48:18.163Z,6.15
2023-04-15T02:50:48.234Z,6.13
2023-04-15T02:53:19.409Z,6.12
2023-04-15T02:55:47.529Z,6.12
2023-04-15T02:58:16.019Z,6.13
2023-04-15T03:00:44.091Z,6.14
2023-04-15T03:03:15.491Z,6.15
2023-04-15T03:05:46.884Z,6.17
2023-04-15T03:08:23.348Z,6.18
2023-04-15T03:10:52.687Z,6.19
2023-04-15T03:13:21.872Z,6.19
2023-04-15T03:15:50.005Z,6.18
2023-04-15T03:18:18.209Z,6.16
2023-04-15T03:20:46.866Z,6.15
2023-04-15T03:23:15.568Z,6.13
2023-04-15T03:25:45.304Z,6.13
2023-04-15T03:28:13.482Z,6.13
2023-04-15T03:30:41.977Z,6.12
2023-04-15T03:33:11.107Z,6.10
2023-04-15T03:35:39.418Z,6.08
2023-04-15T03:38:07.537Z,6.05
2023-04-15T03:40:35.639Z,6.02
2023-04-15T03:43:03.577Z,6.00
2023-04-15T03:45:31.764Z,5.99
2023-04-15T03:48:11.466Z,5.98
2023-04-15T03:50:44.015Z,5.96
2023-04-15T03:53:15.181Z,5.96
2023-04-15T03:55:43.697Z,5.96
2023-04-15T03:58:13.121Z,5.96
2023-04-15T04:00:41.629Z,5.96
2023-04-15T04:03:10.029Z,5.97
2023-04-15T04:05:39.148Z,5.99
2023-04-15T04:08:07.689Z,6.05
2023-04-15T04:10:36.038Z,6.13
2023-04-15T04:13:04.193Z,6.21
2023-04-15T04:15:32.526Z,6.23
2023-04-15T04:18:00.878Z,6.25
2023-04-15T04:20:29.076Z,6.41
2023-04-15T04:22:57.117Z,6.59
2023-04-15T04:25:25.861Z,6.60
2023-04-15T04:27:53.946Z,6.57
2023-04-15T04:30:22.305Z,6.57
2023-04-15T04:32:53.635Z,6.58
2023-04-15T04:35:22.001Z,6.60
2023-04-15T04:37:52.168Z,6.64
2023-04-15T04:40:20.827Z,6.67
2023-04-15T04:42:49.076Z,6.70
2023-04-15T04:45:17.342Z,6.70
2023-04-15T04:47:45.607Z,6.73
2023-04-15T04:50:17.128Z,6.75
2023-04-15T04:52:45.174Z,6.76
2023-04-15T04:55:13.298Z,6.77
2023-04-15T04:57:41.420Z,6.81
2023-04-15T05:00:09.736Z,6.84
2023-04-15T05:02:37.869Z,6.87
2023-04-15T05:05:06.697Z,6.88
2023-04-15T05:07:34.648Z,6.91
2023-04-15T05:10:02.728Z,6.95
2023-04-15T05:12:30.837Z,7.00
2023-04-15T05:14:58.950Z,7.02
2023-04-15T05:17:27.449Z,7.06
2023-04-15T05:19:55.975Z,7.13
2023-04-15T05:22:24.057Z,7.20
2023-04-15T05:24:52.045Z,7.33
2023-04-15T05:27:20.120Z,7.43
2023-04-15T05:29:48.444Z,7.54
2023-04-15T05:32:17.175Z,7.73
2023-04-15T05:34:45.550Z,7.97
2023-04-15T05:37:13.594Z,8.19
2023-04-15T05:39:42.425Z,8.65
2023-04-15T05:42:10.802Z,8.99
2023-04-15T05:44:38.862Z,9.25
2023-04-15T05:47:08.078Z,9.32
2023-04-15T05:49:36.544Z,9.41
2023-04-15T05:52:04.681Z,9.35
2023-04-15T05:54:32.972Z,9.24
2023-04-15T05:57:01.910Z,9.13
2023-04-15T05:59:30.126Z,9.05
2023-04-15T06:01:58.310Z,9.01
2023-04-15T06:04:26.507Z,8.98
2023-04-15T06:06:54.874Z,9.00
2023-04-15T06:09:23.045Z,9.09
2023-04-15T06:11:52.210Z,9.20
2023-04-15T06:14:20.416Z,9.29
2023-04-15T06:16:48.701Z,9.38
2023-04-15T06:19:16.807Z,9.49
2023-04-15T06:21:45.645Z,9.59
2023-04-15T06:24:13.696Z,9.63
2023-04-15T06:26:41.767Z,9.72
2023-04-15T06:29:10.481Z,9.88
2023-04-15T06:31:38.610Z,10.05
2023-04-15T06:34:06.822Z,10.25
2023-04-15T06:36:37.756Z,10.44
2023-04-15T06:39:05.845Z,10.65
2023-04-15T06:41:34.376Z,10.84
2023-04-15T06:44:02.733Z,11.03
2023-04-15T06:46:30.849Z,11.20
2023-04-15T06:48:59.092Z,11.34
2023-04-15T06:51:27.832Z,11.45
2023-04-15T06:53:57.036Z,11.57
2023-04-15T06:56:25.094Z,11.65
2023-04-15T06:58:53.102Z,11.69
2023-04-15T07:01:21.525Z,11.76
2023-04-15T07:03:52.585Z,11.89
2023-04-15T07:06:21.961Z,12.00
2023-04-15T07:08:50.461Z,12.11
2023-04-15T07:11:18.500Z,12.19
2023-04-15T07:13:46.753Z,12.25
2023-04-15T07:16:14.934Z,12.36
2023-04-15T07:18:44.715Z,12.47
2023-04-15T07:21:15.208Z,12.52
2023-04-15T07:23:43.248Z,12.56
2023-04-15T07:26:11.412Z,12.62
2023-04-15T07:28:56.646Z,12.67
2023-04-15T07:31:25.172Z,12.73
2023-04-15T07:33:56.139Z,12.77
2023-04-15T07:36:24.695Z,12.81
2023-04-15T07:38:52.987Z,12.88
2023-04-15T07:41:34.491Z,12.93
2023-04-15T07:44:09.357Z,12.97
2023-04-15T07:46:40.231Z,13.04
2023-04-15T07:49:11.150Z,13.13
2023-04-15T07:51:41.803Z,13.23
2023-04-15T07:54:10.251Z,13.34
2023-04-15T07:56:40.243Z,13.45
2023-04-15T07:59:12.026Z,13.56
2023-04-15T08:01:40.530Z,13.70
2023-04-15T08:04:09.383Z,13.87
2023-04-15T08:06:40.160Z,13.97
2023-04-15T08:09:18.562Z,14.03
2023-04-15T08:11:49.602Z,14.03
2023-04-15T08:14:18.211Z,14.01
2023-04-15T08:16:49.742Z,13.96
2023-04-15T08:19:18.172Z,14.02
2023-04-15T08:21:46.864Z,14.00
2023-04-15T08:24:15.789Z,14.03
2023-04-15T08:26:44.325Z,14.15
2023-04-15T08:29:17.060Z,14.26
2023-04-15T08:31:50.505Z,14.27
2023-04-15T08:34:21.382Z,14.16
2023-04-15T08:36:53.876Z,14.14
2023-04-15T08:39:24.477Z,14.14
2023-04-15T08:42:07.386Z,14.24
2023-04-15T08:44:49.479Z,14.33
2023-04-15T08:47:22.941Z,14.34
2023-04-15T08:49:54.369Z,14.49
2023-04-15T08:52:26.870Z,14.56
2023-04-15T08:55:05.503Z,14.63
2023-04-15T08:57:37.142Z,14.80
2023-04-15T09:00:06.949Z,14.94
2023-04-15T09:02:36.190Z,15.02
2023-04-15T09:05:11.742Z,15.17
2023-04-15T09:07:40.110Z,15.29
2023-04-15T09:10:11.918Z,15.37
2023-04-15T09:12:42.709Z,15.43
2023-04-15T09:15:24.700Z,15.54
2023-04-15T09:17:56.311Z,15.47
2023-04-15T09:20:24.896Z,15.45
2023-04-15T09:22:55.804Z,15.53
2023-04-15T09:25:36.024Z,15.63
2023-04-15T09:28:04.808Z,15.72
2023-04-15T09:30:33.556Z,15.72
2023-04-15T09:33:08.785Z,15.79
2023-04-15T09:35:37.361Z,15.83
2023-04-15T09:38:10.196Z,15.84
2023-04-15T09:40:41.359Z,15.73
2023-04-15T09:43:13.231Z,15.69
2023-04-15T09:45:48.909Z,15.85
2023-04-15T09:48:21.335Z,16.06
2023-04-15T09:50:50.591Z,16.15
2023-04-15T09:53:20.858Z,16.32
2023-04-15T09:55:52.145Z,16.41
2023-04-15T09:58:25.745Z,16.47
2023-04-15T10:01:02.051Z,16.60
2023-04-15T10:03:40.511Z,16.72
2023-04-15T10:06:10.447Z,16.66
2023-04-15T10:08:39.283Z,16.51
2023-04-15T10:11:08.171Z,16.64
2023-04-15T10:13:38.318Z,16.99
2023-04-15T10:16:07.229Z,17.37
2023-04-15T10:18:45.910Z,17.63
2023-04-15T10:21:22.077Z,17.66
2023-04-15T10:24:02.034Z,17.58
2023-04-15T10:26:43.861Z,17.65
2023-04-15T10:29:18.947Z,17.86
2023-04-15T10:31:57.035Z,18.06
2023-04-15T10:34:29.721Z,18.15
2023-04-15T10:37:36.311Z,18.14
2023-04-15T10:40:30.507Z,17.80
2023-04-15T10:43:07.353Z,17.36
2023-04-15T10:45:50.071Z,17.04
2023-04-15T10:48:33.828Z,16.96
2023-04-15T10:51:05.994Z,16.95
2023-04-15T10:54:00.167Z,16.84
2023-04-15T10:56:36.874Z,16.62
2023-04-15T10:59:05.809Z,16.46
2023-04-15T11:01:56.529Z,16.35
2023-04-15T11:07:52.360Z,16.70
2023-04-15T11:10:28.108Z,16.81
2023-04-15T11:13:03.830Z,16.80
2023-04-15T11:15:40.464Z,16.93
2023-04-15T11:18:10.382Z,17.00
2023-04-15T11:21:04.214Z,16.96
2023-04-15T11:23:54.594Z,16.83
2023-04-15T11:26:35.996Z,16.92
2023-04-15T11:29:05.592Z,17.18
2023-04-15T11:31:34.044Z,17.45
2023-04-15T11:34:04.807Z,17.57
2023-04-15T11:36:33.224Z,17.50
2023-04-15T11:39:01.667Z,17.51
2023-04-15T11:41:30.480Z,17.59
2023-04-15T11:43:58.988Z,17.52
2023-04-15T11:46:32.083Z,17.44
2023-04-15T11:49:02.840Z,17.44
2023-04-15T11:51:35.238Z,17.40
2023-04-15T11:54:04.278Z,17.37
2023-04-15T11:57:04.788Z,17.35
2023-04-15T11:59:45.839Z,17.33
2023-04-15T12:02:14.840Z,17.38
2023-04-15T12:04:43.678Z,17.51
2023-04-15T12:07:12.845Z,17.58
2023-04-15T12:09:41.340Z,17.70
2023-04-15T12:12:14.599Z,17.83
2023-04-15T12:14:43.595Z,17.93
2023-04-15T12:17:15.518Z,18.02
2023-04-15T12:19:51.313Z,18.09
2023-04-15T12:22:22.350Z,18.11
2023-04-15T12:24:57.909Z,18.10
2023-04-15T12:27:29.718Z,18.08
2023-04-15T12:30:11.944Z,18.01
2023-04-15T12:32:42.107Z,17.88
2023-04-15T12:35:11.576Z,17.84
2023-04-15T12:37:39.774Z,17.75
2023-04-15T12:40:09.305Z,17.76
2023-04-15T12:42:38.207Z,17.93
2023-04-15T12:45:07.161Z,18.08
2023-04-15T12:47:38.810Z,18.23
2023-04-15T12:50:07.714Z,18.40
2023-04-15T12:52:36.029Z,18.53
2023-04-15T12:55:04.463Z,18.50
2023-04-15T12:57:37.815Z,18.27
2023-04-15T13:00:20.345Z,18.02
2023-04-15T13:02:57.976Z,17.74
2023-04-15T13:05:26.772Z,17.64
2023-04-15T13:07:54.972Z,17.59
2023-04-15T13:11:10.522Z,17.40
2023-04-15T13:13:44.086Z,17.19
2023-04-15T13:16:12.228Z,17.08
2023-04-15T13:18:40.886Z,17.08
2023-04-15T13:21:14.691Z,17.12
2023-04-15T13:23:43.050Z,17.05
2023-04-15T13:26:11.550Z,16.97
2023-04-15T13:28:46.028Z,16.96
2023-04-15T13:31:14.604Z,16.91
2023-04-15T13:33:52.433Z,16.94
2023-04-15T13:36:28.801Z,16.97
2023-04-15T13:39:00.828Z,17.07
2023-04-15T13:42:06.635Z,17.23
2023-04-15T13:44:38.762Z,17.34
2023-04-15T13:47:14.824Z,17.44
2023-04-15T13:49:54.552Z,17.52
2023-04-15T13:52:23.653Z,17.51
2023-04-15T13:55:19.477Z,17.50
2023-04-15T13:57:55.096Z,17.48
2023-04-15T14:00:48.307Z,17.42
2023-04-15T14:03:46.161Z,17.13
2023-04-15T14:06:28.956Z,16.99
2023-04-15T14:09:06.241Z,16.86
2023-04-15T14:11:37.099Z,16.71
2023-04-15T14:14:08.433Z,16.57
2023-04-15T14:16:42.350Z,16.43
2023-04-15T14:19:13.061Z,16.33
2023-04-15T14:21:42.095Z,16.31
2023-04-15T14:24:24.864Z,16.41
2023-04-15T14:26:57.661Z,16.52
2023-04-15T14:29:26.270Z,16.59
2023-04-15T14:32:08.562Z,16.60
2023-04-15T14:34:42.711Z,16.57
2023-04-15T14:37:13.897Z,16.58
2023-04-15T14:39:47.426Z,16.54
2023-04-15T14:42:29.631Z,16.44
2023-04-15T14:45:23.572Z,16.25
2023-04-15T14:48:23.547Z,16.02
2023-04-15T14:50:52.491Z,15.84
2023-04-15T14:56:16.096Z,15.64
2023-04-15T14:58:44.688Z,15.56
2023-04-15T15:01:16.144Z,15.48
2023-04-15T15:06:32.215Z,15.37
2023-04-15T15:09:10.010Z,15.32
2023-04-15T15:11:39.844Z,15.32
2023-04-15T15:14:08.337Z,15.33
2023-04-15T15:16:37.730Z,15.32
2023-04-15T15:19:06.179Z,15.32
2023-04-15T15:21:35.103Z,15.35
2023-04-15T15:24:03.673Z,15.32
2023-04-15T15:26:33.839Z,15.25
2023-04-15T15:29:05.699Z,15.19
2023-04-15T15:31:39.550Z,15.10
2023-04-15T15:34:11.152Z,15.05
2023-04-15T15:36:54.297Z,15.01
2023-04-15T15:39:23.994Z,14.99
2023-04-15T15:41:56.082Z,14.98
2023-04-15T15:44:24.540Z,14.93
2023-04-15T15:46:57.803Z,14.89
2023-04-15T15:49:28.409Z,14.85
2023-04-15T15:51:57.189Z,14.79
2023-04-15T15:54:32.884Z,14.72
2023-04-15T15:57:02.323Z,14.67
2023-04-15T15:59:33.415Z,14.62
2023-04-15T16:02:04.800Z,14.58
2023-04-15T16:04:36.652Z,14.55
2023-04-15T16:07:12.859Z,14.52
2023-04-15T16:10:01.784Z,14.47
2023-04-15T16:12:35.061Z,14.43
2023-04-15T16:15:04.445Z,14.39
2023-04-15T16:17:36.479Z,14.34
2023-04-15T16:20:12.199Z,14.28
2023-04-15T16:22:48.400Z,14.21
2023-04-15T16:25:23.542Z,14.15
2023-04-15T16:28:03.453Z,14.10
2023-04-15T16:30:41.683Z,14.05
2023-04-15T16:33:10.015Z,14.00
2023-04-15T16:35:38.196Z,13.96
2023-04-15T16:38:09.424Z,13.91
2023-04-15T16:40:40.728Z,13.87
2023-04-15T16:43:11.526Z,13.82
2023-04-15T16:45:39.742Z,13.78
2023-04-15T16:48:08.031Z,13.73
2023-04-15T16:50:39.270Z,13.70
2023-04-15T16:53:08.151Z,13.65
2023-04-15T16:55:36.524Z,13.60
2023-04-15T16:58:05.998Z,13.54
2023-04-15T17:00:37.076Z,13.49
2023-04-15T17:03:06.318Z,13.43
2023-04-15T17:05:34.866Z,13.37
2023-04-15T17:08:03.280Z,13.31
2023-04-15T17:10:31.720Z,13.24
2023-04-15T17:12:59.917Z,13.14
2023-04-15T17:15:28.143Z,13.04
2023-04-15T17:17:56.461Z,12.94
2023-04-15T17:20:24.945Z,12.83
2023-04-15T17:22:53.366Z,12.72
2023-04-15T17:25:24.098Z,12.62
2023-04-15T17:27:52.505Z,12.50
2023-04-15T17:30:21.904Z,12.38
2023-04-15T17:32:51.814Z,12.27
2023-04-15T17:35:26.404Z,12.16
2023-04-15T17:37:54.671Z,12.07
2023-04-15T17:40:22.980Z,11.99
2023-04-15T17:42:51.191Z,11.89
2023-04-15T17:45:20.826Z,11.80
2023-04-15T17:47:49.121Z,11.72
2023-04-15T17:50:17.688Z,11.65
2023-04-15T17:52:48.444Z,11.58
2023-04-15T17:55:16.840Z,11.49
2023-04-15T17:57:46.442Z,11.42
2023-04-15T18:00:14.878Z,11.35
2023-04-15T18:02:43.355Z,11.29
2023-04-15T18:05:12.114Z,11.24
2023-04-15T18:07:41.203Z,11.17
2023-04-15T18:10:09.599Z,11.14
2023-04-15T18:12:38.162Z,11.14
2023-04-15T18:15:06.870Z,11.13
2023-04-15T18:17:35.847Z,11.11
2023-04-15T18:20:04.238Z,11.07
2023-04-15T18:22:32.372Z,11.00
2023-04-15T18:25:04.288Z,10.90
2023-04-15T18:27:33.861Z,10.80
2023-04-15T18:30:01.962Z,10.72
2023-04-15T18:32:33.438Z,10.66
2023-04-15T18:35:02.075Z,10.58
2023-04-15T18:37:30.405Z,10.50
2023-04-15T18:39:59.086Z,10.44
2023-04-15T18:42:27.557Z,10.37
2023-04-15T18:44:56.204Z,10.31
2023-04-15T18:47:36.763Z,10.26
2023-04-15T18:50:05.395Z,10.21
2023-04-15T18:52:34.306Z,10.16
2023-04-15T18:55:03.466Z,10.09
2023-04-15T18:57:34.816Z,10.02
2023-04-15T19:00:04.818Z,9.96
2023-04-15T19:02:33.041Z,9.89
2023-04-15T19:05:04.390Z,9.82
2023-04-15T19:07:32.936Z,9.75
2023-04-15T19:10:01.346Z,9.66
2023-04-15T19:12:29.533Z,9.62
2023-04-15T19:14:57.925Z,9.61
2023-04-15T19:17:26.703Z,9.58
2023-04-15T19:19:55.038Z,9.54
2023-04-15T19:22:23.403Z,9.49
2023-04-15T19:24:52.193Z,9.45
2023-04-15T19:27:20.474Z,9.39
2023-04-15T19:29:48.519Z,9.31
2023-04-15T19:32:16.768Z,9.24
2023-04-15T19:34:44.885Z,9.18
2023-04-15T19:37:15.029Z,9.15
2023-04-15T19:39:44.274Z,9.13
2023-04-15T19:42:12.984Z,9.12
2023-04-15T19:44:42.947Z,9.10
2023-04-15T19:47:11.848Z,9.07
2023-04-15T19:49:40.814Z,9.06
2023-04-15T19:52:08.819Z,9.04
2023-04-15T19:54:37.118Z,9.01
2023-04-15T19:57:05.441Z,8.99
2023-04-15T19:59:33.633Z,8.98
2023-04-15T20:02:01.786Z,8.98
2023-04-15T20:04:30.095Z,8.99
2023-04-15T20:06:58.159Z,8.99
2023-04-15T20:09:26.270Z,8.99
2023-04-15T20:12:48.132Z,8.99
2023-04-15T20:14:42.318Z,8.99
2023-04-15T20:17:10.433Z,8.97
2023-04-15T20:19:48.197Z,8.96
2023-04-15T20:22:16.572Z,8.94
2023-04-15T20:24:44.696Z,8.91
2023-04-15T20:27:12.718Z,8.89
2023-04-15T20:29:40.872Z,8.87
2023-04-15T20:32:11.660Z,8.85
2023-04-15T20:34:42.551Z,8.82
2023-04-15T20:37:12.441Z,8.79
2023-04-15T20:39:42.135Z,8.76
2023-04-15T20:42:10.644Z,8.72
2023-04-15T20:44:38.849Z,8.68
2023-04-15T20:47:07.536Z,8.65
2023-04-15T20:49:39.929Z,8.61
2023-04-15T20:52:09.087Z,8.57
2023-04-15T20:54:37.146Z,8.53
2023-04-15T20:57:05.184Z,8.50
2023-04-15T20:59:34.876Z,8.47
2023-04-15T21:02:03.102Z,8.46
2023-04-15T21:04:31.323Z,8.46
2023-04-15T21:06:59.388Z,8.45
2023-04-15T21:09:30.416Z,8.44
2023-04-15T21:12:01.557Z,8.42
2023-04-15T21:14:30.214Z,8.39
2023-04-15T21:16:58.372Z,8.38
2023-04-15T21:19:26.620Z,8.35
2023-04-15T21:21:54.783Z,8.34
2023-04-15T21:24:22.689Z,8.33
2023-04-15T21:26:50.680Z,8.30
2023-04-15T21:29:18.804Z,8.27
2023-04-15T21:31:46.793Z,8.25
2023-04-15T21:34:14.898Z,8.22
2023-04-15T21:36:43.063Z,8.19
2023-04-15T21:39:11.363Z,8.17
2023-04-15T21:41:39.325Z,8.15
2023-04-15T21:44:07.353Z,8.13
2023-04-15T21:46:36.246Z,8.12
2023-04-15T21:49:06.397Z,8.11
2023-04-15T21:51:34.818Z,8.11
2023-04-15T21:54:03.113Z,8.11
2023-04-15T21:56:32.567Z,8.12
2023-04-15T21:59:00.708Z,8.09
2023-04-15T22:01:28.928Z,8.07
2023-04-15T22:03:57.145Z,8.06
2023-04-15T22:06:25.470Z,8.04
2023-04-15T22:08:57.381Z,8.01
2023-04-15T22:11:27.635Z,7.98
2023-04-15T22:13:57.615Z,7.95
2023-04-15T22:16:26.747Z,7.92
2023-04-15T22:18:56.123Z,7.89
2023-04-15T22:21:24.508Z,7.86
2023-04-15T22:23:53.237Z,7.84
2023-04-15T22:26:51.106Z,7.81
2023-04-15T22:29:19.264Z,7.78
2023-04-15T22:31:47.500Z,7.76
2023-04-15T22:34:20.753Z,7.74
2023-04-15T22:36:50.819Z,7.72
2023-04-15T22:39:20.473Z,7.69
2023-04-15T22:41:49.741Z,7.67
2023-04-15T22:44:18.145Z,7.63
2023-04-15T22:46:46.365Z,7.60
2023-04-15T22:49:14.395Z,7.57
2023-04-15T22:51:42.495Z,7.54
2023-04-15T22:54:10.918Z,7.51
2023-04-15T22:56:40.215Z,7.49
2023-04-15T22:59:14.545Z,7.48
2023-04-15T23:01:42.593Z,7.44
2023-04-15T23:04:26.233Z,7.42
2023-04-15T23:06:57.824Z,7.39
2023-04-15T23:09:26.482Z,7.36
2023-04-15T23:11:56.348Z,7.34
2023-04-15T23:14:26.255Z,7.32
2023-04-15T23:16:54.836Z,7.29
2023-04-15T23:19:23.336Z,7.27
2023-04-15T23:21:53.935Z,7.26
2023-04-15T23:24:24.573Z,7.23
2023-04-15T23:26:57.331Z,7.20
2023-04-15T23:29:25.721Z,7.18
2023-04-15T23:31:59.827Z,7.16
2023-04-15T23:34:39.955Z,7.16
2023-04-15T23:37:07.995Z,7.17
2023-04-15T23:39:36.358Z,7.18
2023-04-15T23:42:04.500Z,7.18
2023-04-15T23:44:32.599Z,7.18
2023-04-15T23:47:00.676Z,7.17
2023-04-15T23:49:28.862Z,7.15
2023-04-15T23:51:57.606Z,7.14
2023-04-15T23:54:25.659Z,7.10
2023-04-15T23:56:53.854Z,7.07
2023-04-15T23:59:21.888Z,7.04
